Página principal
Imagens de satélite Previsões 10 diasClimaMeteorologia maritima Ciclones Descargas eléctricas AeroportosFAQ Notícias Sobre
Tempo : Europa África América do Norte América do Sul Ásia Austrália-Oceania Outros
Línguas Contacto

Cambridge, Inglaterra

latitude: 52-12N, longitude: 000-11E, altura: 15 m


METAR: EGSC 270750Z 25009KT 9999 FEW020 04/01 Q1018
TAF: EGSC 261658Z 2618/2620 29017KT 9999 SCT035 TEMPO 2618/2620 30020G30KT

Hora: 08:09 (08:09 UTC)

Observação actual do tempo

O boletim foi feito há 19 minutos, às 07:50 UTC
Vento 9 kt de oes-sudoeste
Temperatura 4°C
Humidade 81%
Pressão 1018 hPa
Visibilidade 10 km ou mais
Poucas nuvensa uma altura de 2000 ft

Mudar unidades

Previsão

O boletim foi feito há 15 horas e 11 minutos, às 16:58 UTC
Previsão válida de 26 às 18 UTC a 26 às 20 UTC
Vento 17 kt de oes-noroeste
Visibilidade 10 km ou mais
Nuvens dispersasa uma altura de 3500 ft
Temporariamente
de 26 às 18 UTC a 26 às 20 UTC
Vento 20 kt de oes-noroeste com rajadas de 30 kt
As informações contidas neste sítio estão sujeitas a uma declaração de exoneração de responsabilidade
Tempo : Europa África América do Norte América do Sul Ásia Austrália-Oceania Outros
Imagens de satélite Previsões 10 diasClimaMeteorologia maritima Ciclones Descargas eléctricas AeroportosFAQ Línguas Contacto Notícias Sobre